Great Barford, United Kingdom
Current Conditions -  °F | °C
As of 12:20 PM on Thursday 30 Oct 2014 (Local Time) from EGTC Reporting Station
Scattered Clouds Scattered Clouds  
Wind Chill: 63°   Ceiling: Unl
Heat Index: 63°   Visibility: 6mi
Dew Point: 63°   Wind: 13mph
Humidity: 100%   Direction: 210°SSW
Pressure: 30.03"   Gusts: NA
Location:  52.16°N, 0.35°W
Report Text: EGTC 301220Z 21011KT 9999 SCT015 17/17 Q1017
Loading
Personal Weather Stations






























Interactive Weather Map New forecast layout! Learn more

10-Day Weather Forecast

Advertisements
Track Severe Weather on mobile